Time;durP1;ratioP1;P1;durP2;ratioP2;P2;SDS_P1;SDS_P2;PMS_P1;PMS_P2;Temp;Humidity;BMP_temperature;BMP_pressure;BME280_temperature;BME280_humidity;BME280_pressure;Samples;Min_cycle;Max_cycle;Signal;HPM_P1;HPM_P2
2021/12/25 00:02:07;;;;;;;;;56.25;46.50;;;;;10.02;84.79;100027.38;5039599;28;45385;-53
2021/12/25 00:04:32;;;;;;;;;63.00;47.25;;;;;10.14;85.08;100041.22;5039650;28;45396;-51
2021/12/25 00:06:58;;;;;;;;;54.50;42.25;;;;;10.11;85.61;100045.06;5039310;28;46071;-54
2021/12/25 00:09:25;;;;;;;;;63.25;47.75;;;;;10.04;85.75;100040.53;5039373;28;45402;-52
2021/12/25 00:11:51;;;;;;;;;50.75;42.25;;;;;10.04;85.71;100038.72;5039435;28;45587;-52
2021/12/25 00:14:16;;;;;;;;;63.50;50.25;;;;;10.03;85.75;100034.41;5039525;28;45367;-51
2021/12/25 00:16:41;;;;;;;;;55.00;43.25;;;;;10.03;85.63;100031.72;5038938;28;46945;-51
2021/12/25 00:19:07;;;;;;;;;61.00;45.75;;;;;10.05;86.08;100026.25;5039261;28;45218;-52
2021/12/25 00:21:33;;;;;;;;;47.25;37.50;;;;;10.02;85.88;100027.38;5021512;28;45397;-52
2021/12/25 00:23:59;;;;;;;;;57.25;45.75;;;;;9.99;85.47;100012.63;5039681;28;45264;-54
2021/12/25 00:26:38;;;;;;;;;48.75;35.50;;;;;10.07;85.58;100027.75;5037666;28;46906;-53
2021/12/25 00:29:29;;;;;;;;;47.75;43.50;;;;;10.07;85.56;100017.13;5039246;28;45328;-52
2021/12/25 00:34:35;;;;;;;;;50.75;39.75;;;;;10.07;85.01;100009.16;5039236;28;45412;-51
2021/12/25 00:37:00;;;;;;;;;46.00;40.75;;;;;10.07;85.57;99995.88;5038012;28;45350;-52
2021/12/25 00:39:29;;;;;;;;;55.75;40.00;;;;;10.05;85.70;99989.88;5039300;28;45299;-52
2021/12/25 00:41:59;;;;;;;;;59.75;44.75;;;;;10.05;85.39;99992.53;5038929;28;45536;-53
2021/12/25 00:44:25;;;;;;;;;40.25;35.00;;;;;10.00;85.75;99997.50;5039038;28;45313;-52
2021/12/25 00:46:51;;;;;;;;;47.50;41.00;;;;;10.04;86.07;99988.22;5038627;28;47069;-51
2021/12/25 00:49:16;;;;;;;;;55.75;45.25;;;;;9.97;85.93;99976.56;5038837;28;45194;-52
2021/12/25 00:51:42;;;;;;;;;60.25;43.50;;;;;10.03;85.57;99978.59;5038821;28;45327;-53
2021/12/25 00:54:07;;;;;;;;;60.25;45.00;;;;;9.99;86.09;99967.44;5038946;28;45244;-49
2021/12/25 00:56:33;;;;;;;;;60.50;47.25;;;;;10.03;85.27;99988.34;5038581;28;46312;-51
2021/12/25 00:58:59;;;;;;;;;57.75;45.25;;;;;10.06;85.43;99991.53;5038697;28;45441;-51
2021/12/25 01:01:24;;;;;;;;;53.25;43.25;;;;;10.02;85.54;99987.53;5038794;28;45241;-52
2021/12/25 01:03:50;;;;;;;;;55.75;45.50;;;;;9.99;85.58;99990.53;5038806;28;45471;-52
2021/12/25 01:06:15;;;;;;;;;53.00;40.00;;;;;10.00;85.84;100001.00;5038428;28;45982;-51
2021/12/25 01:08:41;;;;;;;;;38.00;31.75;;;;;9.94;85.52;99985.72;5038711;28;45376;-50
2021/12/25 01:11:07;;;;;;;;;38.75;33.75;;;;;9.94;85.28;99987.50;5038406;28;45327;-51
2021/12/25 01:13:38;;;;;;;;;43.25;34.50;;;;;9.87;85.70;99979.38;5038739;28;45376;-52
2021/12/25 01:37:38;;;;;;;;;39.75;33.25;;;;;9.70;85.59;100005.03;4956636;28;45298;-51
2021/12/25 01:40:40;;;;;;;;;30.75;26.00;;;;;9.78;85.19;100020.19;4956852;28;45530;-51
2021/12/25 01:48:37;;;;;;;;;31.50;22.00;;;;;9.73;85.29;100007.38;4956673;28;45394;-50
2021/12/25 01:51:02;;;;;;;;;34.00;24.25;;;;;9.86;85.92;100014.03;4956659;28;45340;-51
2021/12/25 01:53:28;;;;;;;;;28.75;26.50;;;;;9.88;85.53;100015.56;4956953;28;45362;-53
2021/12/25 01:55:54;;;;;;;;;28.50;25.75;;;;;9.88;84.82;100007.59;4956811;28;45429;-52
2021/12/25 01:58:20;;;;;;;;;34.00;26.50;;;;;9.92;85.37;100016.06;4940171;28;45393;-51
2021/12/25 02:00:52;;;;;;;;;25.75;23.25;;;;;9.89;85.39;100017.22;4956637;28;45522;-50
2021/12/25 02:03:20;;;;;;;;;27.50;20.75;;;;;9.87;85.15;100011.25;5017401;28;45303;-52
2021/12/25 02:05:45;;;;;;;;;24.75;21.75;;;;;9.86;85.08;100016.69;5037860;28;45467;-52
2021/12/25 02:08:11;;;;;;;;;32.00;22.00;;;;;9.79;84.91;100005.91;5037624;28;45397;-52
2021/12/25 02:10:37;;;;;;;;;28.25;23.75;;;;;9.82;85.34;100015.34;5037792;28;45232;-50
2021/12/25 02:13:03;;;;;;;;;25.00;20.50;;;;;9.80;85.71;100020.84;5037662;28;45564;-52
2021/12/25 02:15:30;;;;;;;;;27.00;21.75;;;;;9.81;85.31;100022.50;5037829;28;45575;-51
2021/12/25 02:20:34;;;;;;;;;30.50;21.25;;;;;9.78;85.41;100025.50;5037450;28;45406;-51
2021/12/25 02:23:03;;;;;;;;;36.50;22.50;;;;;9.75;85.12;100016.00;5037760;28;45412;-52
2021/12/25 02:25:32;;;;;;;;;33.50;28.00;;;;;9.74;84.86;100013.50;5037613;28;45366;-50
2021/12/25 02:27:59;;;;;;;;;24.00;20.25;;;;;9.71;85.41;100009.34;5037230;28;47264;-52
2021/12/25 02:30:24;;;;;;;;;23.00;20.50;;;;;9.71;84.94;100013.81;5037285;28;45406;-52
2021/12/25 02:32:50;;;;;;;;;27.00;23.75;;;;;9.70;85.11;100013.00;5037306;28;45302;-52
2021/12/25 02:35:16;;;;;;;;;28.50;20.00;;;;;9.71;85.51;100013.81;5037554;28;45377;-49
2021/12/25 02:37:44;;;;;;;;;32.25;25.00;;;;;9.67;85.49;100002.69;5037248;28;46758;-52
2021/12/25 02:40:11;;;;;;;;;29.50;24.25;;;;;9.72;85.08;100013.66;5036885;28;45353;-51
2021/12/25 02:42:36;;;;;;;;;31.00;25.00;;;;;9.74;85.43;100014.34;5037051;28;45439;-52
2021/12/25 02:45:06;;;;;;;;;27.25;23.50;;;;;9.74;85.47;100011.69;5037222;28;45367;-51
2021/12/25 02:47:35;;;;;;;;;29.25;22.75;;;;;9.82;85.26;100012.69;5037092;28;46338;-51
2021/12/25 02:50:01;;;;;;;;;27.25;22.00;;;;;9.86;85.31;100012.25;5035943;28;45410;-50
2021/12/25 02:52:26;;;;;;;;;25.25;22.75;;;;;9.90;85.28;100010.94;5036984;28;45459;-51
2021/12/25 02:54:52;;;;;;;;;28.75;24.25;;;;;9.93;85.14;100009.75;5037422;28;45412;-52
2021/12/25 02:57:17;;;;;;;;;26.50;21.25;;;;;9.95;85.13;100010.44;5036657;28;46299;-52
2021/12/25 02:59:42;;;;;;;;;34.00;21.75;;;;;9.84;84.74;99985.00;5036897;28;45381;-53
2021/12/25 03:02:11;;;;;;;;;24.00;21.50;;;;;9.99;84.70;100001.16;5036924;28;45496;-50
2021/12/25 03:04:39;;;;;;;;;27.50;20.75;;;;;10.00;84.61;100002.81;5037106;28;45353;-52
2021/12/25 03:07:05;;;;;;;;;30.00;20.75;;;;;9.99;85.22;100009.97;5036663;28;46129;-54
2021/12/25 03:09:30;;;;;;;;;26.00;20.00;;;;;10.04;84.88;100009.47;5036630;28;45230;-49
2021/12/25 03:11:55;;;;;;;;;31.50;26.00;;;;;10.04;84.91;100006.81;5036830;28;45513;-52
2021/12/25 03:14:50;;;;;;;;;31.00;20.25;;;;;10.08;84.77;100010.81;5036817;28;45473;-51
2021/12/25 03:17:09;;;;;;;;;29.00;23.75;;;;;10.07;84.31;100001.19;5035312;28;45397;-51
2021/12/25 03:19:35;;;;;;;;;31.75;26.75;;;;;10.13;83.92;100007.69;5036605;28;45447;-51
2021/12/25 03:22:02;;;;;;;;;26.25;23.50;;;;;10.13;84.32;100011.16;5034853;28;45384;-52
2021/12/25 03:24:28;;;;;;;;;34.50;25.00;;;;;10.10;84.21;100008.00;5036906;28;45231;-51
2021/12/25 03:26:56;;;;;;;;;27.50;25.00;;;;;10.10;84.46;100005.34;5036305;28;46204;-49
2021/12/25 03:29:24;;;;;;;;;26.25;24.25;;;;;10.14;84.45;100004.03;5036456;28;45506;-52
2021/12/25 03:31:50;;;;;;;;;28.25;21.50;;;;;10.16;84.05;99992.25;5036488;28;45211;-53
2021/12/25 03:34:16;;;;;;;;;26.75;21.50;;;;;10.19;84.08;99997.22;5036754;28;45315;-53
2021/12/25 03:36:42;;;;;;;;;30.50;23.25;;;;;10.19;83.73;100005.19;5036184;28;45273;-52
2021/12/25 03:39:08;;;;;;;;;28.75;26.25;;;;;10.19;84.01;100018.47;5036307;28;45419;-50
2021/12/25 03:41:34;;;;;;;;;27.25;23.50;;;;;10.18;83.67;100013.34;5036499;28;45361;-52
2021/12/25 03:44:00;;;;;;;;;30.00;24.50;;;;;10.13;83.69;100002.38;5036451;28;45442;-52
2021/12/25 03:46:28;;;;;;;;;25.00;21.50;;;;;10.21;83.61;100021.00;5036249;28;46420;-52
2021/12/25 03:59:16;;;;;;;;;32.75;25.50;;;;;10.27;83.60;100019.53;5036276;28;45330;-53
2021/12/25 04:01:47;;;;;;;;;33.25;25.75;;;;;10.23;83.64;100011.84;5038889;28;45215;-51
2021/12/25 04:04:32;;;;;;;;;26.00;22.75;;;;;10.29;83.71;100030.84;5039846;28;45294;-52
2021/12/25 04:07:04;;;;;;;;;36.75;25.75;;;;;10.28;83.43;100026.50;5039277;28;46388;-51
2021/12/25 04:09:32;;;;;;;;;32.00;24.50;;;;;10.22;83.33;100020.81;5039554;28;45333;-52
2021/12/25 04:12:09;;;;;;;;;30.75;23.00;;;;;10.24;83.61;100034.81;5039572;28;45393;-52
2021/12/25 04:14:35;;;;;;;;;34.50;24.75;;;;;10.23;83.71;100033.09;5039341;28;45326;-52
2021/12/25 04:17:01;;;;;;;;;27.50;22.50;;;;;10.13;83.77;100013.00;5039014;28;47249;-52
2021/12/25 04:19:27;;;;;;;;;42.25;32.50;;;;;10.20;83.83;100027.31;5039330;28;45279;-52
2021/12/25 04:22:00;;;;;;;;;41.75;27.50;;;;;10.21;84.14;100032.44;5039552;28;45338;-53
2021/12/25 04:24:29;;;;;;;;;34.25;28.00;;;;;10.21;84.28;100023.66;5039721;28;45799;-50
2021/12/25 04:26:55;;;;;;;;;33.50;25.00;;;;;10.22;84.12;100023.47;5038971;28;46185;-52
2021/12/25 04:29:36;;;;;;;;;35.00;25.00;;;;;10.23;83.89;100027.78;5039051;28;45365;-52
2021/12/25 04:49:19;;;;;;;;;27.67;23.00;;;;;10.25;83.58;100033.00;4942964;28;46065;-53
2021/12/25 05:04:59;;;;;;;;;32.50;24.50;;;;;10.26;83.93;100025.84;4957533;28;45564;-52
2021/12/25 05:07:25;;;;;;;;;29.75;22.75;;;;;10.26;83.65;100031.16;4957576;28;45388;-53
2021/12/25 05:09:51;;;;;;;;;29.75;22.00;;;;;10.14;83.87;100010.16;4957415;28;45380;-53
2021/12/25 05:12:16;;;;;;;;;37.75;29.00;;;;;10.21;84.27;100021.81;5009908;28;45385;-50
2021/12/25 05:14:42;;;;;;;;;35.25;28.50;;;;;10.24;84.19;100034.81;5038424;28;45163;-51
2021/12/25 05:17:08;;;;;;;;;29.25;26.50;;;;;10.24;84.11;100026.84;5038509;28;45401;-52
2021/12/25 05:19:34;;;;;;;;;27.50;22.75;;;;;10.27;84.25;100028.34;5038335;28;46303;-52
2021/12/25 05:21:59;;;;;;;;;32.00;25.75;;;;;10.28;84.17;100035.34;5038209;28;46061;-51
2021/12/25 05:24:27;;;;;;;;;35.75;27.50;;;;;10.27;84.17;100027.50;5038512;28;45204;-50
2021/12/25 05:26:56;;;;;;;;;29.00;27.25;;;;;10.30;84.33;100035.16;5038606;28;45353;-52
2021/12/25 05:29:24;;;;;;;;;32.00;24.25;;;;;10.30;83.70;100029.84;5037838;28;46499;-51
2021/12/25 05:31:50;;;;;;;;;33.50;23.50;;;;;10.28;84.58;100032.69;5038184;28;45448;-53
2021/12/25 05:34:16;;;;;;;;;39.75;29.50;;;;;10.23;84.29;100025.13;5038117;28;45444;-54
2021/12/25 05:36:41;;;;;;;;;31.75;28.50;;;;;10.32;84.21;100035.81;5038313;28;45315;-52
2021/12/25 05:39:11;;;;;;;;;30.50;27.50;;;;;10.33;84.25;100034.84;5038200;28;45301;-52
2021/12/25 05:41:37;;;;;;;;;28.75;25.25;;;;;10.31;84.08;100034.16;5038084;28;45265;-51
2021/12/25 05:44:02;;;;;;;;;37.75;31.00;;;;;10.33;84.29;100035.69;5020067;28;45484;-49
2021/12/25 05:46:28;;;;;;;;;32.00;26.50;;;;;10.34;84.25;100040.00;5038404;28;45144;-52
2021/12/25 05:48:53;;;;;;;;;28.25;25.50;;;;;10.31;84.29;100036.81;5037826;28;46026;-50
2021/12/25 05:51:19;;;;;;;;;37.00;30.75;;;;;10.24;83.96;100026.84;5038085;28;45299;-50
2021/12/25 05:53:45;;;;;;;;;28.25;23.50;;;;;10.28;84.13;100029.16;5038052;28;45457;-51
2021/12/25 05:56:11;;;;;;;;;25.50;23.00;;;;;10.35;84.39;100038.16;5038365;28;45310;-52
2021/12/25 05:58:36;;;;;;;;;37.00;26.25;;;;;10.35;84.17;100038.16;5037768;28;45473;-49
2021/12/25 06:01:03;;;;;;;;;29.75;26.50;;;;;10.34;84.22;100036.50;5037674;28;45401;-49
2021/12/25 06:03:29;;;;;;;;;32.50;30.25;;;;;10.29;84.27;100036.16;5038002;28;45424;-52
2021/12/25 06:05:54;;;;;;;;;36.00;27.75;;;;;10.34;84.35;100040.00;5037957;28;45369;-51
2021/12/25 06:08:20;;;;;;;;;30.25;27.50;;;;;10.36;83.97;100039.81;5037734;28;46182;-52
2021/12/25 06:10:46;;;;;;;;;31.50;27.00;;;;;10.39;84.07;100050.13;5037728;28;45480;-52
2021/12/25 06:13:17;;;;;;;;;39.00;29.00;;;;;10.37;84.10;100045.00;5037871;28;45199;-49
2021/12/25 06:15:42;;;;;;;;;38.00;28.75;;;;;10.35;84.27;100030.19;5037531;28;45479;-53
2021/12/25 06:18:10;;;;;;;;;33.50;28.50;;;;;10.32;84.42;100041.13;5037118;28;46037;-51
2021/12/25 06:20:37;;;;;;;;;31.75;23.75;;;;;10.33;84.53;100040.16;5037410;28;45315;-50
2021/12/25 06:23:02;;;;;;;;;43.50;32.50;;;;;10.25;84.49;100027.69;5037286;28;45231;-49
2021/12/25 06:25:28;;;;;;;;;28.00;25.25;;;;;10.30;84.43;100038.66;5036591;28;45310;-51
2021/12/25 06:27:53;;;;;;;;;34.00;30.00;;;;;10.30;84.72;100045.78;5037460;28;46276;-51
2021/12/25 06:30:19;;;;;;;;;34.25;29.75;;;;;10.32;84.61;100043.78;5037291;28;45474;-49
2021/12/25 06:32:44;;;;;;;;;30.25;26.75;;;;;10.28;84.26;100045.97;5037477;28;45329;-50
2021/12/25 06:35:10;;;;;;;;;31.75;24.25;;;;;10.28;84.47;100042.44;5037580;28;45409;-49
2021/12/25 06:37:36;;;;;;;;;34.50;30.00;;;;;10.30;84.51;100056.44;5037072;28;47047;-52
2021/12/25 06:40:02;;;;;;;;;38.00;27.00;;;;;10.30;84.50;100054.59;5037266;28;45504;-53
2021/12/25 06:42:28;;;;;;;;;31.25;29.00;;;;;10.25;84.96;100051.59;5037403;28;45358;-51
2021/12/25 06:44:55;;;;;;;;;38.50;28.75;;;;;10.31;84.85;100060.75;5037197;28;45487;-51
2021/12/25 06:47:20;;;;;;;;;41.50;31.50;;;;;10.29;84.54;100050.28;5037156;28;46224;-51
2021/12/25 06:49:45;;;;;;;;;36.25;31.50;;;;;10.30;84.36;100062.56;5036889;28;45709;-50
2021/12/25 06:52:11;;;;;;;;;32.00;28.00;;;;;10.25;84.59;100054.25;5037250;28;45294;-51
2021/12/25 06:54:36;;;;;;;;;41.25;34.25;;;;;10.29;84.62;100060.09;5037514;28;45392;-51
2021/12/25 06:57:03;;;;;;;;;39.50;30.25;;;;;10.28;84.65;100064.59;5036909;28;47091;-51
2021/12/25 06:59:30;;;;;;;;;46.50;33.25;;;;;10.29;84.59;100058.25;5036683;28;45501;-52
2021/12/25 07:01:55;;;;;;;;;44.00;37.25;;;;;10.21;85.04;100053.72;5037040;28;45215;-54
2021/12/25 07:04:20;;;;;;;;;37.00;30.25;;;;;10.27;84.71;100059.41;5037143;28;45356;-54
2021/12/25 07:06:47;;;;;;;;;38.25;30.50;;;;;10.18;84.71;100040.75;5037062;28;45264;-53
2021/12/25 07:09:12;;;;;;;;;41.25;33.00;;;;;10.28;84.88;100064.59;5036885;28;45278;-52
2021/12/25 07:11:38;;;;;;;;;33.75;28.75;;;;;10.28;84.92;100066.38;5036853;28;45322;-51
2021/12/25 07:14:05;;;;;;;;;41.25;35.25;;;;;10.28;84.72;100061.91;5019437;28;45515;-54
2021/12/25 07:16:32;;;;;;;;;37.25;29.50;;;;;10.29;84.97;100065.41;5036359;28;46343;-53
2021/12/25 07:18:58;;;;;;;;;34.75;29.50;;;;;10.30;84.87;100061.75;5036686;28;45520;-53
2021/12/25 07:21:23;;;;;;;;;37.00;35.25;;;;;10.29;84.93;100060.91;5019003;28;45375;-52
2021/12/25 07:23:49;;;;;;;;;41.50;30.00;;;;;10.22;84.77;100049.22;5037186;28;45404;-51
2021/12/25 07:26:17;;;;;;;;;46.50;33.00;;;;;10.36;84.55;100071.72;5036503;28;45406;-51
2021/12/25 07:28:44;;;;;;;;;31.00;27.75;;;;;10.38;84.58;100064.44;5036564;28;45424;-52
2021/12/25 07:31:09;;;;;;;;;36.50;28.50;;;;;10.39;84.64;100064.25;5036544;28;45326;-49
2021/12/25 07:33:36;;;;;;;;;37.00;30.50;;;;;10.40;84.68;100065.91;5036769;28;45369;-53
2021/12/25 07:36:03;;;;;;;;;41.75;30.25;;;;;10.44;84.20;100064.59;5037560;28;45419;-52
2021/12/25 07:38:29;;;;;;;;;32.50;28.50;;;;;10.35;84.50;100046.13;5039898;28;45282;-52
2021/12/25 07:40:55;;;;;;;;;24.50;22.25;;;;;10.34;84.15;100055.94;5040054;28;45266;-53
2021/12/25 07:43:20;;;;;;;;;29.25;25.00;;;;;10.44;84.51;100067.25;5040404;28;45323;-49
2021/12/25 07:45:47;;;;;;;;;39.25;29.75;;;;;10.44;84.39;100069.91;5039577;28;46102;-52
2021/12/25 07:48:13;;;;;;;;;31.25;26.50;;;;;10.44;84.41;100075.22;5040087;28;45346;-53
2021/12/25 07:50:40;;;;;;;;;38.00;26.25;;;;;10.43;84.43;100068.25;5039785;28;45378;-51
2021/12/25 07:53:07;;;;;;;;;31.00;29.00;;;;;10.41;84.42;100069.44;5039758;28;45326;-53
2021/12/25 07:55:33;;;;;;;;;36.75;29.00;;;;;10.46;84.18;100064.47;5038792;28;46413;-50
2021/12/25 07:57:59;;;;;;;;;33.00;26.00;;;;;10.46;84.31;100067.94;5038898;28;45365;-52
2021/12/25 08:00:25;;;;;;;;;34.50;25.50;;;;;10.46;84.05;100075.09;5038728;28;45380;-52
2021/12/25 08:02:51;;;;;;;;;33.50;26.25;;;;;10.45;84.01;100073.44;5039464;28;45897;-52
2021/12/25 08:05:17;;;;;;;;;33.00;25.50;;;;;10.44;83.92;100069.09;5038776;28;45433;-52
2021/12/25 08:07:42;;;;;;;;;33.50;24.00;;;;;10.42;84.46;100077.25;5038855;28;45375;-54
2021/12/25 08:10:13;;;;;;;;;32.00;21.75;;;;;9.73;84.35;99964.88;5039041;28;45424;-52
2021/12/25 08:12:44;;;;;;;;;36.25;27.00;;;;;10.43;84.48;100081.56;5038963;28;45379;-53
2021/12/25 08:15:10;;;;;;;;;35.75;29.00;;;;;10.45;84.38;100078.75;5038607;28;45358;-52
2021/12/25 08:17:36;;;;;;;;;36.00;29.00;;;;;10.46;84.30;100080.41;5038224;28;45357;-51
2021/12/25 08:20:03;;;;;;;;;33.50;26.50;;;;;10.45;83.98;100090.22;5038597;28;45338;-53
2021/12/25 08:22:29;;;;;;;;;33.00;24.50;;;;;10.44;83.99;100077.91;5039094;28;45313;-52
2021/12/25 08:24:54;;;;;;;;;28.50;20.25;;;;;10.46;84.18;100080.41;5038697;28;46007;-53
2021/12/25 08:27:19;;;;;;;;;35.25;24.00;;;;;10.45;84.20;100087.56;5038678;28;45238;-53
2021/12/25 08:29:45;;;;;;;;;36.25;29.00;;;;;10.47;84.23;100090.03;5038205;28;45306;-52
2021/12/25 08:32:10;;;;;;;;;39.25;29.75;;;;;10.47;84.22;100090.03;5038730;28;45430;-50
2021/12/25 08:34:37;;;;;;;;;40.50;28.25;;;;;10.44;84.18;100085.88;5038439;28;46032;-51
2021/12/25 08:37:05;;;;;;;;;36.50;26.25;;;;;10.39;83.99;100068.75;5038553;28;45338;-53
2021/12/25 08:39:31;;;;;;;;;42.25;31.50;;;;;10.48;84.15;100081.91;5038757;28;45327;-49
2021/12/25 08:42:01;;;;;;;;;31.75;26.50;;;;;10.47;84.20;100087.38;5038560;28;45472;-52
2021/12/25 08:47:16;;;;;;;;;34.75;29.25;;;;;10.54;83.68;100088.41;4955927;28;45363;-51
2021/12/25 08:49:41;;;;;;;;;37.50;28.75;;;;;10.52;83.73;100093.03;4957472;28;45387;-52
2021/12/25 08:52:11;;;;;;;;;31.25;26.25;;;;;10.48;84.00;100094.38;4957424;28;45433;-51
2021/12/25 08:54:37;;;;;;;;;30.75;27.50;;;;;10.51;83.71;100095.88;4956921;28;46442;-53
2021/12/25 08:57:03;;;;;;;;;36.75;25.00;;;;;10.53;83.79;100092.03;4957298;28;45440;-53
2021/12/25 08:59:29;;;;;;;;;43.75;31.75;;;;;10.45;83.83;100079.59;4957198;28;45276;-51
2021/12/25 09:01:56;;;;;;;;;35.00;28.00;;;;;10.58;83.81;100097.72;4957041;28;45512;-50
2021/12/25 09:04:21;;;;;;;;;44.00;31.50;;;;;10.57;83.84;100100.53;4956656;28;45511;-53
2021/12/25 09:06:47;;;;;;;;;39.75;31.25;;;;;10.60;83.57;100101.03;4956661;28;45509;-52
2021/12/25 09:09:12;;;;;;;;;38.00;32.75;;;;;10.61;83.41;100104.53;4957145;28;45802;-52
2021/12/25 09:11:39;;;;;;;;;37.00;30.00;;;;;10.64;83.31;100105.03;4956974;28;45289;-52
2021/12/25 09:14:05;;;;;;;;;38.00;27.25;;;;;10.68;83.08;100100.25;4956796;28;45312;-53
2021/12/25 09:16:32;;;;;;;;;33.50;28.00;;;;;10.72;83.30;100098.91;4956506;28;45411;-49
2021/12/25 09:18:57;;;;;;;;;35.75;33.50;;;;;10.67;83.27;100101.25;4937349;28;45351;-51
2021/12/25 09:21:23;;;;;;;;;35.50;29.00;;;;;10.71;83.35;100097.25;4937711;28;45333;-53
2021/12/25 09:23:48;;;;;;;;;41.00;29.50;;;;;10.73;82.63;100114.72;4962331;28;45744;-53
2021/12/25 09:26:14;;;;;;;;;29.50;27.75;;;;;10.74;83.29;100108.41;5018285;28;45361;-51
2021/12/25 09:28:40;;;;;;;;;43.75;36.00;;;;;10.73;83.56;100109.38;5018699;28;45340;-50
2021/12/25 09:31:06;;;;;;;;;55.25;35.50;;;;;10.79;83.12;100107.06;5018576;28;45349;-50
2021/12/25 09:33:32;;;;;;;;;36.50;29.75;;;;;10.81;83.16;100113.06;5016731;28;46588;-53
2021/12/25 09:36:02;;;;;;;;;38.25;28.50;;;;;10.88;82.59;100114.91;5018161;28;45251;-51
2021/12/25 09:38:27;;;;;;;;;33.75;26.00;;;;;10.91;83.02;100114.59;5018077;28;45346;-51
2021/12/25 09:40:54;;;;;;;;;33.50;26.00;;;;;10.76;82.47;100089.63;5018459;28;45398;-52
2021/12/25 09:43:20;;;;;;;;;32.25;25.75;;;;;10.93;82.49;100115.25;5018090;28;45449;-51
2021/12/25 09:45:45;;;;;;;;;39.75;30.50;;;;;10.98;82.48;100120.06;5018014;28;45443;-50
2021/12/25 09:48:11;;;;;;;;;40.00;28.00;;;;;11.05;82.04;100112.28;5018200;28;45356;-52
2021/12/25 09:50:36;;;;;;;;;31.67;26.67;;;;;11.02;81.90;100100.13;5018071;28;45480;-50
2021/12/25 09:53:11;;;;;;;;;27.75;21.00;;;;;11.19;81.73;100117.75;5017929;28;46943;-52
2021/12/25 09:55:38;;;;;;;;;36.67;25.00;;;;;11.26;81.05;100111.78;5018015;28;45386;-53
2021/12/25 09:58:04;;;;;;;;;26.33;18.00;;;;;11.38;81.06;100124.59;5017597;28;45262;-51
2021/12/25 10:00:30;;;;;;;;;28.33;23.33;;;;;11.38;80.52;100107.78;5018224;28;45468;-52
2021/12/25 10:02:57;;;;;;;;;26.33;21.33;;;;;11.51;80.45;100109.94;5000042;28;45467;-53
2021/12/25 10:05:34;;;;;;;;;19.00;15.00;;;;;11.54;80.40;100118.41;5017808;28;45440;-52
2021/12/25 10:08:20;;;;;;;;;27.33;19.33;;;;;11.59;79.71;100118.75;5018073;28;45437;-50
2021/12/25 10:10:48;;;;;;;;;28.33;19.67;;;;;11.63;79.97;100117.41;5018208;28;45581;-51
2021/12/25 10:13:41;;;;;;;;;30.67;25.33;;;;;11.67;79.42;100117.88;4999059;28;48116;-51
2021/12/25 10:16:18;;;;;;;;;24.67;19.67;;;;;11.69;79.75;100113.25;5017574;28;45314;-51
2021/12/25 10:18:43;;;;;;;;;20.00;17.67;;;;;11.70;79.64;100113.06;5035591;28;45243;-53
2021/12/25 10:21:23;;;;;;;;;16.00;13.67;;;;;11.68;78.93;100106.25;5037722;28;45186;-50
2021/12/25 10:24:12;;;;;;;;;15.33;12.67;;;;;11.70;79.06;100101.56;5037197;28;46093;-53
2021/12/25 10:26:40;;;;;;;;;18.00;12.00;;;;;11.75;78.56;100101.88;5037273;28;45206;-48
2021/12/25 10:29:24;;;;;;;;;16.00;15.00;;;;;11.82;78.36;100096.72;5037359;28;45204;-53
2021/12/25 10:31:59;;;;;;;;;16.33;12.67;;;;;11.89;78.18;100092.41;5037465;28;45350;-54
2021/12/25 10:34:28;;;;;;;;;21.00;16.33;;;;;11.95;78.09;100097.03;5037149;28;45368;-53
2021/12/25 10:37:04;;;;;;;;;20.33;17.00;;;;;11.96;78.14;100099.53;5036958;28;45408;-52
2021/12/25 10:39:29;;;;;;;;;20.67;13.00;;;;;11.96;78.24;100090.72;5037324;28;45357;-52
2021/12/25 10:41:56;;;;;;;;;16.67;13.33;;;;;11.94;77.84;100098.06;5037294;28;45389;-51
2021/12/25 10:44:28;;;;;;;;;17.67;16.33;;;;;11.91;78.32;100101.06;5036896;28;46324;-50
2021/12/25 10:46:56;;;;;;;;;19.00;12.33;;;;;11.90;77.86;100104.72;5036568;28;45422;-51
2021/12/25 10:49:25;;;;;;;;;19.00;17.33;;;;;11.88;78.09;100104.91;5037074;28;45695;-50
2021/12/25 10:51:50;;;;;;;;;18.00;17.33;;;;;11.86;78.13;100103.41;5037212;28;45273;-52
2021/12/25 10:54:18;;;;;;;;;25.00;18.00;;;;;11.77;78.37;100088.41;5036778;28;46095;-50
2021/12/25 10:56:46;;;;;;;;;20.33;17.33;;;;;11.75;78.29;100075.25;5036563;28;45432;-52
2021/12/25 10:59:14;;;;;;;;;22.00;18.67;;;;;11.86;78.74;100092.75;5037021;28;45336;-53
2021/12/25 11:01:44;;;;;;;;;23.33;20.00;;;;;11.91;78.69;100091.22;5037167;28;45361;-52
2021/12/25 11:04:32;;;;;;;;;19.00;16.33;;;;;11.99;78.51;100085.03;5036659;28;46127;-52
2021/12/25 11:07:10;;;;;;;;;22.00;17.67;;;;;11.99;78.92;100085.88;5036659;28;45186;-50
2021/12/25 11:09:36;;;;;;;;;20.00;17.00;;;;;12.01;78.65;100075.06;5036853;28;45366;-51
2021/12/25 11:12:21;;;;;;;;;21.67;18.67;;;;;11.94;79.20;100074.91;5040278;28;45200;-51
2021/12/25 11:14:48;;;;;;;;;19.00;14.67;;;;;11.97;78.59;100071.91;5040308;28;45420;-51
2021/12/25 11:17:24;;;;;;;;;22.67;14.67;;;;;11.95;78.42;100071.22;5039964;28;45508;-52
2021/12/25 11:19:58;;;;;;;;;19.33;16.00;;;;;11.94;78.69;100068.75;5040237;28;45328;-53
2021/12/25 11:22:25;;;;;;;;;27.33;26.33;;;;;11.90;79.43;100070.91;5040442;28;45458;-52
2021/12/25 11:24:51;;;;;;;;;30.67;27.00;;;;;11.89;79.02;100065.75;5040175;28;45413;-53
2021/12/25 11:27:18;;;;;;;;;30.33;28.33;;;;;11.86;79.29;100066.09;5040071;28;45442;-52
2021/12/25 11:29:44;;;;;;;;;31.33;25.67;;;;;11.90;79.56;100062.09;5040280;28;45237;-52
2021/12/25 11:32:11;;;;;;;;;35.33;26.67;;;;;11.92;79.53;100052.91;5040171;28;45246;-52
2021/12/25 11:34:37;;;;;;;;;35.33;29.67;;;;;11.96;79.54;100059.53;5039857;28;45993;-52
2021/12/25 11:37:04;;;;;;;;;38.25;32.50;;;;;11.96;79.05;100051.56;5039852;28;45322;-52
2021/12/25 11:39:31;;;;;;;;;44.25;39.25;;;;;11.84;79.41;100041.44;5040170;28;45373;-50
2021/12/25 11:42:03;;;;;;;;;40.00;34.50;;;;;11.86;79.61;100050.94;5039957;28;45400;-51
2021/12/25 11:44:46;;;;;;;;;42.67;30.67;;;;;11.78;79.92;100039.44;5039168;28;45660;-53
2021/12/25 11:47:44;;;;;;;;;36.00;30.33;;;;;11.87;79.65;100043.75;5039782;28;45282;-52
2021/12/25 11:50:22;;;;;;;;;32.67;25.67;;;;;11.85;79.71;100048.44;5039885;28;45427;-53
2021/12/25 11:53:13;;;;;;;;;28.67;27.00;;;;;11.74;79.96;100047.78;5039978;28;45241;-50
2021/12/25 11:56:03;;;;;;;;;37.00;31.00;;;;;11.81;80.24;100039.94;5021874;28;46240;-50
2021/12/25 11:58:53;;;;;;;;;38.67;31.00;;;;;11.80;79.88;100021.44;5039539;28;45217;-52
2021/12/25 12:01:21;;;;;;;;;35.25;32.00;;;;;11.98;79.46;100038.91;5039705;28;45297;-54
2021/12/25 12:04:17;;;;;;;;;31.33;25.67;;;;;11.98;79.53;100038.06;5039861;28;45409;-53
2021/12/25 12:06:51;;;;;;;;;40.25;33.75;;;;;12.07;79.01;100041.53;5037582;28;46160;-53
2021/12/25 12:09:22;;;;;;;;;41.67;34.00;;;;;12.05;79.26;100016.88;5039459;28;45344;-51
2021/12/25 12:12:10;;;;;;;;;46.33;36.67;;;;;12.19;78.74;100035.63;5039570;28;45405;-51
2021/12/25 12:14:36;;;;;;;;;45.33;33.33;;;;;12.04;77.80;100034.69;5039728;28;45410;-51
2021/12/25 12:17:25;;;;;;;;;37.00;30.33;;;;;11.97;79.19;100037.25;5039048;28;46190;-49
2021/12/25 12:19:52;;;;;;;;;37.67;26.00;;;;;12.01;78.55;100040.41;5039078;28;45342;-53
2021/12/25 12:27:35;;;;;;;;;50.50;42.25;;;;;11.93;79.23;100038.59;4957927;28;45560;-52
2021/12/25 12:30:05;;;;;;;;;35.33;33.00;;;;;11.94;78.74;100034.09;4957680;28;45366;-53
2021/12/25 12:32:35;;;;;;;;;35.00;29.67;;;;;11.91;79.21;100040.59;4958118;28;45399;-53
2021/12/25 12:35:03;;;;;;;;;42.33;31.33;;;;;11.90;78.72;100030.09;4958087;28;45357;-51
2021/12/25 12:37:31;;;;;;;;;38.67;35.33;;;;;11.90;79.07;100036.25;4957922;28;46405;-52
2021/12/25 12:39:58;;;;;;;;;42.25;35.50;;;;;11.87;79.08;100031.28;4957605;28;45418;-53